createdAt,value
2023-04-21T00:04:56.763Z,45.11
2023-04-21T00:10:02.146Z,44.73
2023-04-21T00:15:06.469Z,44.43
2023-04-21T00:20:10.933Z,44.82
2023-04-21T00:25:13.391Z,44.91
2023-04-21T00:30:16.194Z,44.96
2023-04-21T00:35:18.514Z,45.02
2023-04-21T00:40:20.995Z,44.88
2023-04-21T00:45:23.293Z,44.99
2023-04-21T00:50:25.788Z,44.94
2023-04-21T00:55:28.152Z,45.23
2023-04-21T01:00:30.947Z,45.53
2023-04-21T01:05:33.344Z,45.72
2023-04-21T01:10:35.688Z,46.17
2023-04-21T01:15:38.020Z,46.14
2023-04-21T01:20:41.319Z,46.56
2023-04-21T01:25:43.675Z,46.41
2023-04-21T01:30:46.386Z,46.88
2023-04-21T01:35:49.272Z,46.98
2023-04-21T01:40:56.074Z,47.15
2023-04-21T01:45:58.449Z,47.32
2023-04-21T01:51:01.322Z,47.44
2023-04-21T01:56:03.786Z,47.60
2023-04-21T02:01:06.903Z,47.76
2023-04-21T02:06:10.375Z,48.19
2023-04-21T02:11:12.636Z,48.43
2023-04-21T02:16:16.202Z,48.33
2023-04-21T02:21:22.275Z,48.47
2023-04-21T02:26:24.832Z,48.57
2023-04-21T02:31:27.216Z,48.66
2023-04-21T02:36:29.998Z,48.81
2023-04-21T02:41:33.443Z,48.91
2023-04-21T02:46:36.682Z,49.02
2023-04-21T02:51:39.034Z,49.24
2023-04-21T02:56:41.344Z,49.23
2023-04-21T03:01:43.639Z,49.39
2023-04-21T03:06:45.993Z,49.37
2023-04-21T03:11:48.242Z,49.50
2023-04-21T03:16:50.737Z,49.63
2023-04-21T03:21:53.108Z,49.72
2023-04-21T03:26:56.929Z,49.47
2023-04-21T03:31:59.557Z,49.45
2023-04-21T03:37:02.629Z,48.90
2023-04-21T03:42:05.330Z,48.88
2023-04-21T03:47:07.577Z,48.78
2023-04-21T03:52:09.898Z,48.22
2023-04-21T03:57:13.076Z,48.06
2023-04-21T04:02:15.390Z,47.50
2023-04-21T04:07:18.030Z,46.12
2023-04-21T04:12:20.642Z,45.59
2023-04-21T04:17:23.275Z,45.47
2023-04-21T04:22:27.966Z,45.20
2023-04-21T04:27:30.242Z,44.80
2023-04-21T04:32:33.856Z,43.74
2023-04-21T04:37:40.058Z,43.04
2023-04-21T04:42:43.094Z,43.11
2023-04-21T04:47:46.210Z,42.93
2023-04-21T04:52:50.064Z,42.43
2023-04-21T04:57:52.548Z,41.83
2023-04-21T05:02:56.592Z,41.65
2023-04-21T05:07:59.197Z,41.38
2023-04-21T05:13:01.479Z,40.46
2023-04-21T05:18:04.130Z,40.28
2023-04-21T05:23:07.995Z,40.08
2023-04-21T05:28:10.370Z,39.59
2023-04-21T05:33:12.929Z,38.91
2023-04-21T05:38:15.455Z,38.60
2023-04-21T05:43:17.721Z,37.98
2023-04-21T05:48:20.655Z,37.29
2023-04-21T05:53:24.238Z,36.31
2023-04-21T05:58:26.628Z,36.63
2023-04-21T06:03:31.900Z,35.95
2023-04-21T06:08:34.376Z,36.12
2023-04-21T06:13:38.494Z,35.67
2023-04-21T06:18:41.429Z,36.05
2023-04-21T06:23:43.787Z,34.54
2023-04-21T06:28:47.856Z,34.45
2023-04-21T06:33:50.167Z,34.00
2023-04-21T06:38:52.580Z,33.61
2023-04-21T06:43:54.921Z,33.08
2023-04-21T06:48:57.331Z,33.04
2023-04-21T06:53:59.682Z,32.78
2023-04-21T06:59:01.962Z,32.61
2023-04-21T07:04:06.514Z,32.45
2023-04-21T07:09:09.138Z,32.34
2023-04-21T07:14:11.508Z,32.39
2023-04-21T07:19:13.907Z,32.22
2023-04-21T07:24:16.420Z,32.00
2023-04-21T07:29:18.990Z,31.63
2023-04-21T07:34:21.760Z,30.62
2023-04-21T07:39:27.188Z,30.67
2023-04-21T07:44:29.735Z,30.75
2023-04-21T07:49:32.541Z,30.30
2023-04-21T07:54:34.927Z,30.12
2023-04-21T07:59:37.380Z,29.89
2023-04-21T08:04:40.493Z,29.13
2023-04-21T08:09:43.968Z,28.90
2023-04-21T08:14:46.506Z,29.11
2023-04-21T08:19:50.233Z,29.47
2023-04-21T08:24:52.803Z,29.08
2023-04-21T08:30:11.035Z,28.19
2023-04-21T08:35:13.632Z,28.46
2023-04-21T08:40:15.951Z,28.15
2023-04-21T08:45:18.732Z,27.69
2023-04-21T08:50:21.799Z,27.81
2023-04-21T08:55:29.962Z,27.63
2023-04-21T09:00:33.770Z,27.75
2023-04-21T09:05:42.036Z,27.73
2023-04-21T09:10:46.860Z,27.34
2023-04-21T09:15:52.648Z,27.30
2023-04-21T09:21:10.816Z,27.14
2023-04-21T09:26:13.612Z,27.81
2023-04-21T09:31:21.148Z,28.06
2023-04-21T09:36:28.815Z,28.01
2023-04-21T09:41:32.483Z,26.91
2023-04-21T09:46:37.161Z,28.31
2023-04-21T09:52:05.860Z,28.38
2023-04-21T09:57:04.978Z,27.22
2023-04-21T10:02:08.875Z,27.45
2023-04-21T10:07:12.014Z,28.67
2023-04-21T10:12:14.974Z,27.86
2023-04-21T10:17:18.150Z,27.80
2023-04-21T10:22:31.680Z,27.65
2023-04-21T10:27:41.342Z,27.96
2023-04-21T10:32:45.768Z,27.20
2023-04-21T10:37:50.343Z,26.51
2023-04-21T10:42:52.818Z,27.10
2023-04-21T10:47:55.295Z,27.34
2023-04-21T10:53:10.527Z,27.93
2023-04-21T10:58:17.125Z,27.98
2023-04-21T11:03:19.650Z,27.02
2023-04-21T11:08:22.230Z,27.08
2023-04-21T11:13:26.942Z,27.21
2023-04-21T11:18:48.530Z,26.96
2023-04-21T11:23:52.997Z,27.26
2023-04-21T11:28:55.448Z,27.01
2023-04-21T11:33:59.315Z,27.73
2023-04-21T11:39:10.244Z,28.21
2023-04-21T11:44:13.384Z,27.20
2023-04-21T11:49:17.502Z,27.63
2023-04-21T11:54:22.371Z,27.84
2023-04-21T11:59:26.609Z,28.04
2023-04-21T12:04:30.446Z,27.67
2023-04-21T12:09:36.701Z,27.54
2023-04-21T12:14:39.841Z,27.65
2023-04-21T12:19:43.187Z,27.93
2023-04-21T12:24:45.834Z,27.77
2023-04-21T12:29:48.132Z,27.68
2023-04-21T12:34:50.782Z,27.72
2023-04-21T12:39:53.095Z,27.86
2023-04-21T12:44:55.473Z,27.54
2023-04-21T12:49:57.871Z,27.75
2023-04-21T12:55:00.286Z,27.56
2023-04-21T13:00:02.609Z,26.92
2023-04-21T13:05:07.625Z,27.23
2023-04-21T13:10:10.884Z,27.25
2023-04-21T13:15:13.294Z,27.90
2023-04-21T13:20:15.761Z,27.64
2023-04-21T13:25:18.328Z,27.93
2023-04-21T13:30:21.749Z,27.68
2023-04-21T13:35:24.218Z,27.82
2023-04-21T13:40:26.706Z,27.77
2023-04-21T13:45:29.127Z,27.84
2023-04-21T13:50:32.778Z,28.06
2023-04-21T13:55:35.348Z,28.33
2023-04-21T14:00:39.207Z,28.91
2023-04-21T14:05:41.798Z,28.09
2023-04-21T14:10:45.331Z,28.28
2023-04-21T14:15:47.767Z,28.74
2023-04-21T14:20:50.437Z,29.38
2023-04-21T14:25:54.967Z,28.48
2023-04-21T14:30:57.650Z,28.73
2023-04-21T14:36:00.428Z,29.35
2023-04-21T14:41:05.409Z,29.60
2023-04-21T14:46:07.986Z,29.45
2023-04-21T14:51:10.588Z,29.26
2023-04-21T14:56:13.186Z,29.36
2023-04-21T15:01:15.632Z,29.10
2023-04-21T15:06:18.242Z,29.45
2023-04-21T15:11:20.812Z,29.94
2023-04-21T15:16:23.302Z,29.77
2023-04-21T15:21:25.688Z,29.70
2023-04-21T15:26:30.805Z,29.44
2023-04-21T15:31:33.357Z,29.88
2023-04-21T15:36:36.225Z,30.15
2023-04-21T15:41:38.746Z,30.26
2023-04-21T15:46:41.599Z,30.39
2023-04-21T15:51:44.189Z,30.11
2023-04-21T15:56:46.802Z,30.56
2023-04-21T16:01:49.394Z,30.74
2023-04-21T16:06:52.140Z,30.42
2023-04-21T16:11:54.663Z,30.69
2023-04-21T16:16:57.267Z,30.99
2023-04-21T16:21:59.980Z,31.07
2023-04-21T16:27:03.425Z,31.10
2023-04-21T16:32:05.981Z,31.35
2023-04-21T16:37:08.509Z,31.44
2023-04-21T16:42:11.129Z,31.53
2023-04-21T16:47:13.608Z,32.06
2023-04-21T16:52:16.198Z,32.26
2023-04-21T16:57:19.825Z,32.40
2023-04-21T17:02:22.441Z,32.63
2023-04-21T17:07:24.843Z,32.92
2023-04-21T17:12:27.966Z,33.04
2023-04-21T17:17:45.090Z,33.78
2023-04-21T17:22:47.740Z,33.76
2023-04-21T17:27:50.266Z,34.26
2023-04-21T17:33:04.053Z,34.40
2023-04-21T17:38:15.031Z,34.80
2023-04-21T17:43:17.542Z,35.29
2023-04-21T17:48:20.636Z,35.37
2023-04-21T17:53:23.075Z,35.87
2023-04-21T17:58:28.742Z,36.07
2023-04-21T18:03:31.491Z,36.18
2023-04-21T18:08:34.600Z,36.31
2023-04-21T18:13:37.085Z,36.43
2023-04-21T18:18:39.858Z,36.96
2023-04-21T18:23:44.013Z,37.22
2023-04-21T18:28:46.767Z,37.38
2023-04-21T18:33:49.358Z,37.84
2023-04-21T18:38:51.879Z,38.16
2023-04-21T18:43:54.732Z,38.51
2023-04-21T18:48:57.169Z,38.29
2023-04-21T18:53:59.554Z,38.77
2023-04-21T18:59:02.073Z,39.05
2023-04-21T19:04:04.685Z,39.30
2023-04-21T19:09:07.202Z,39.59
2023-04-21T19:14:09.638Z,39.91
2023-04-21T19:19:12.576Z,40.08
2023-04-21T19:24:14.863Z,40.16
2023-04-21T19:29:18.737Z,40.47
2023-04-21T19:34:21.862Z,40.56
2023-04-21T19:39:24.367Z,40.72
2023-04-21T19:44:26.865Z,41.08
2023-04-21T19:49:29.534Z,41.57
2023-04-21T19:54:32.557Z,41.62
2023-04-21T19:59:35.392Z,41.68
2023-04-21T20:04:38.548Z,42.00
2023-04-21T20:09:41.082Z,41.91
2023-04-21T20:14:43.576Z,42.07
2023-04-21T20:19:47.175Z,42.21
2023-04-21T20:24:49.830Z,42.27
2023-04-21T20:29:52.529Z,42.47
2023-04-21T20:34:54.965Z,42.62
2023-04-21T20:39:57.483Z,42.74
2023-04-21T20:45:02.529Z,43.10
2023-04-21T20:50:07.681Z,43.03
2023-04-21T20:55:10.471Z,43.38
2023-04-21T21:00:13.522Z,43.75
2023-04-21T21:05:16.080Z,43.80
2023-04-21T21:10:18.740Z,43.88
2023-04-21T21:15:22.421Z,43.78
2023-04-21T21:20:25.011Z,44.07
2023-04-21T21:25:27.524Z,44.50
2023-04-21T21:30:30.055Z,44.28
2023-04-21T21:35:32.905Z,44.82
2023-04-21T21:40:35.588Z,44.88
2023-04-21T21:45:39.156Z,45.33
2023-04-21T21:50:41.619Z,45.32
2023-04-21T21:55:44.021Z,45.74
2023-04-21T22:00:51.964Z,45.88
2023-04-21T22:05:54.444Z,45.77
2023-04-21T22:10:57.511Z,46.41
2023-04-21T22:16:00.010Z,46.83
2023-04-21T22:21:02.755Z,46.99
2023-04-21T22:26:05.211Z,47.21
2023-04-21T22:31:07.919Z,47.19
2023-04-21T22:36:11.419Z,47.50
2023-04-21T22:41:14.388Z,47.66
2023-04-21T22:46:16.824Z,47.69
2023-04-21T22:51:21.498Z,47.64
2023-04-21T22:56:24.259Z,47.77
2023-04-21T23:01:26.800Z,47.97
2023-04-21T23:06:29.271Z,48.12
2023-04-21T23:11:31.892Z,48.25
2023-04-21T23:16:34.265Z,48.40
2023-04-21T23:21:36.779Z,48.64
2023-04-21T23:26:39.234Z,48.63
2023-04-21T23:31:41.714Z,49.01
2023-04-21T23:36:44.114Z,48.98
2023-04-21T23:41:46.589Z,49.35
2023-04-21T23:46:49.151Z,49.49
2023-04-21T23:51:51.713Z,49.56
2023-04-21T23:56:54.269Z,49.86
